Time;durP1;ratioP1;P1;durP2;ratioP2;P2;SDS_P1;SDS_P2;PMS_P1;PMS_P2;Temp;Humidity;BMP_temperature;BMP_pressure;BME280_temperature;BME280_humidity;BME280_pressure;Samples;Min_cycle;Max_cycle;Signal;HPM_P1;HPM_P2
2022/03/31 00:00:36;;;;;;;;;;;;;;;11.34;47.67;100395.22;5052986;28;19998;-78
2022/03/31 00:03:04;;;;;;;;;;;;;;;11.04;48.74;100391.16;5054309;28;20391;-77
2022/03/31 00:05:29;;;;;;;;;;;;;;;10.91;48.74;100392.22;5053977;28;19921;-77
2022/03/31 00:07:54;;;;;;;;;;;;;;;11.55;47.10;100395.59;5053350;28;19966;-78
2022/03/31 00:10:30;;;;;;;;;;;;;;;10.82;49.02;100393.66;5053799;28;19911;-78
2022/03/31 00:12:56;;;;;;;;;;;;;;;10.82;48.62;100387.47;5053540;28;20378;-78
2022/03/31 00:15:22;;;;;;;;;;;;;;;10.32;49.93;100387.19;5053532;28;20299;-77
2022/03/31 00:17:47;;;;;;;;;;;;;;;11.06;48.33;100378.28;5053326;28;19947;-79
2022/03/31 00:20:12;;;;;;;;;;;;;;;11.43;47.08;100374.97;5086463;28;19923;-79
2022/03/31 00:22:41;;;;;;;;;;;;;;;11.41;47.43;100377.06;5054309;28;19920;-77
2022/03/31 00:25:07;;;;;;;;;;;;;;;10.91;48.12;100378.00;5054138;28;19917;-79
2022/03/31 00:27:33;;;;;;;;;;;;;;;11.91;46.24;100371.75;5053061;28;19998;-77
2022/03/31 00:29:59;;;;;;;;;;;;;;;11.62;46.46;100366.66;5052908;28;20003;-79
2022/03/31 00:32:24;;;;;;;;;;;;;;;11.30;47.92;100359.09;5053355;28;19923;-76
2022/03/31 00:34:50;;;;;;;;;;;;;;;11.27;48.06;100364.16;5053517;28;19912;-76
2022/03/31 00:37:15;;;;;;;;;;;;;;;11.58;47.13;100362.84;5054061;28;20356;-76
2022/03/31 00:39:42;;;;;;;;;;;;;;;11.48;46.85;100355.38;5084933;28;20016;-78
2022/03/31 00:42:08;;;;;;;;;;;;;;;11.82;46.86;100358.94;5052910;28;19956;-78
2022/03/31 00:44:33;;;;;;;;;;;;;;;11.72;46.39;100356.09;5053072;28;19982;-79
2022/03/31 00:46:59;;;;;;;;;;;;;;;11.36;47.70;100354.66;5052845;28;19913;-78
2022/03/31 00:49:25;;;;;;;;;;;;;;;11.25;47.74;100348.25;5053436;28;20311;-78
2022/03/31 00:51:51;;;;;;;;;;;;;;;11.68;46.58;100349.56;5053030;28;19970;-78
2022/03/31 00:54:18;;;;;;;;;;;;;;;11.95;45.81;100347.88;5052874;28;19919;-78
2022/03/31 00:56:44;;;;;;;;;;;;;;;10.86;48.33;100351.00;5052303;28;19977;-78
2022/03/31 00:59:09;;;;;;;;;;;;;;;11.55;46.80;100350.69;5052629;28;19974;-80
2022/03/31 01:01:39;;;;;;;;;;;;;;;12.00;45.63;100348.75;5052708;28;19917;-76
2022/03/31 01:04:05;;;;;;;;;;;;;;;10.90;48.35;100352.97;5052722;28;19916;-77
2022/03/31 01:06:30;;;;;;;;;;;;;;;10.61;48.59;100348.63;5053109;28;19917;-78
2022/03/31 01:08:56;;;;;;;;;;;;;;;10.17;49.89;100352.75;5052338;28;19939;-77
2022/03/31 01:11:21;;;;;;;;;;;;;;;10.37;48.70;100349.72;5053225;28;19920;-79
2022/03/31 01:13:47;;;;;;;;;;;;;;;9.86;50.52;100342.34;5053130;28;19996;-78
2022/03/31 01:16:12;;;;;;;;;;;;;;;11.12;47.48;100331.59;5052919;28;19995;-78
2022/03/31 01:18:37;;;;;;;;;;;;;;;12.01;45.06;100320.75;5052665;28;20003;-78
2022/03/31 01:21:02;;;;;;;;;;;;;;;11.10;46.85;100323.78;5052449;28;19917;-78
2022/03/31 01:23:28;;;;;;;;;;;;;;;11.17;46.96;100313.69;5052628;28;20398;-78
2022/03/31 01:25:53;;;;;;;;;;;;;;;11.23;47.05;100322.66;5053098;28;20018;-77
2022/03/31 01:28:18;;;;;;;;;;;;;;;11.14;47.08;100322.25;5053236;28;20011;-78
2022/03/31 01:30:44;;;;;;;;;;;;;;;9.97;50.05;100330.78;5052547;28;20258;-77
2022/03/31 01:33:10;;;;;;;;;;;;;;;10.95;47.20;100322.66;5051000;28;20323;-78
2022/03/31 01:35:36;;;;;;;;;;;;;;;9.30;51.11;100331.28;5051762;28;19974;-78
2022/03/31 01:38:01;;;;;;;;;;;;;;;10.54;48.95;100329.94;5052766;28;19917;-79
2022/03/31 01:40:27;;;;;;;;;;;;;;;10.99;46.98;100323.81;5053017;28;19932;-78
2022/03/31 01:42:52;;;;;;;;;;;;;;;11.10;46.63;100314.91;5052446;28;19912;-77
2022/03/31 01:45:22;;;;;;;;;;;;;;;11.47;45.87;100313.41;5052081;28;19962;-77
2022/03/31 01:47:47;;;;;;;;;;;;;;;10.98;47.23;100316.81;5052282;28;19916;-77
2022/03/31 01:50:13;;;;;;;;;;;;;;;9.93;49.90;100316.19;5052215;28;20377;-78
2022/03/31 01:52:39;;;;;;;;;;;;;;;10.82;47.10;100306.84;5048787;28;19913;-78
2022/03/31 01:55:05;;;;;;;;;;;;;;;9.97;49.29;100314.69;5032192;28;19917;-77
2022/03/31 01:57:30;;;;;;;;;;;;;;;10.58;48.10;100323.03;5048516;28;19929;-78
2022/03/31 01:59:56;;;;;;;;;;;;;;;10.23;49.64;100308.03;5052139;28;19936;-75
2022/03/31 02:02:22;;;;;;;;;;;;;;;11.38;46.41;100302.22;5051412;28;20444;-79
2022/03/31 02:04:47;;;;;;;;;;;;;;;10.98;47.08;100287.25;5051970;28;19913;-77
2022/03/31 02:07:13;;;;;;;;;;;;;;;10.65;47.56;100285.28;5051826;28;19999;-78
2022/03/31 02:09:38;;;;;;;;;;;;;;;11.71;45.46;100288.00;5051160;28;19959;-77
2022/03/31 02:12:04;;;;;;;;;;;;;;;10.89;46.95;100289.50;5050943;28;19924;-77
2022/03/31 02:14:30;;;;;;;;;;;;;;;10.79;47.44;100288.50;5053771;28;19995;-77
2022/03/31 02:16:55;;;;;;;;;;;;;;;11.27;46.41;100286.16;5055255;28;19916;-78
2022/03/31 02:19:21;;;;;;;;;;;;;;;10.71;47.44;100286.19;5055068;28;20261;-77
2022/03/31 02:21:46;;;;;;;;;;;;;;;10.52;48.57;100283.69;5054949;28;20086;-77
2022/03/31 02:24:12;;;;;;;;;;;;;;;10.93;47.70;100269.16;5054749;28;19912;-79
2022/03/31 02:26:38;;;;;;;;;;;;;;;10.76;48.05;100267.47;5054392;28;19916;-77
2022/03/31 02:29:03;;;;;;;;;;;;;;;10.82;47.77;100261.16;5054491;28;19916;-76
2022/03/31 02:31:29;;;;;;;;;;;;;;;11.13;47.29;100261.44;5054935;28;20402;-79
2022/03/31 02:33:54;;;;;;;;;;;;;;;10.29;48.96;100262.28;5052922;28;19913;-78
2022/03/31 02:36:19;;;;;;;;;;;;;;;11.00;47.87;100248.31;5053120;28;19913;-77
2022/03/31 02:38:45;;;;;;;;;;;;;;;10.71;48.46;100256.66;5054720;28;20056;-76
2022/03/31 02:41:10;;;;;;;;;;;;;;;10.94;47.37;100249.28;5055222;28;19916;-77
2022/03/31 02:43:35;;;;;;;;;;;;;;;10.61;48.94;100250.00;5055399;28;19923;-77
2022/03/31 02:46:01;;;;;;;;;;;;;;;10.47;48.69;100243.31;5087207;28;20288;-76
2022/03/31 02:48:26;;;;;;;;;;;;;;;10.09;49.76;100251.06;5054663;28;19920;-77
2022/03/31 02:50:51;;;;;;;;;;;;;;;10.66;48.34;100241.22;5054462;28;19952;-77
2022/03/31 02:56:01;;;;;;;;;;;;;;;10.58;48.51;100241.63;5054457;28;19987;-76
2022/03/31 02:58:26;;;;;;;;;;;;;;;11.25;47.21;100246.06;5055435;28;19948;-76
2022/03/31 03:00:51;;;;;;;;;;;;;;;11.89;45.36;100247.31;5054021;28;20400;-77
2022/03/31 03:03:16;;;;;;;;;;;;;;;11.58;45.95;100239.84;5054187;28;19912;-76
2022/03/31 03:05:42;;;;;;;;;;;;;;;12.07;44.85;100247.03;5053594;28;20356;-76
2022/03/31 03:08:08;;;;;;;;;;;;;;;11.25;46.55;100246.06;5053958;28;19978;-77
2022/03/31 03:10:33;;;;;;;;;;;;;;;11.29;47.25;100239.13;5054025;28;20308;-77
2022/03/31 03:12:59;;;;;;;;;;;;;;;11.28;47.21;100234.00;5053382;28;20018;-77
2022/03/31 03:15:27;;;;;;;;;;;;;;;10.72;48.39;100234.91;5053160;28;19924;-77
2022/03/31 03:17:52;;;;;;;;;;;;;;;11.30;47.25;100237.28;5053643;28;20301;-78
2022/03/31 03:20:18;;;;;;;;;;;;;;;11.68;45.77;100228.44;5053584;28;19916;-78
2022/03/31 03:22:44;;;;;;;;;;;;;;;11.28;46.45;100240.19;5054415;28;19913;-74
2022/03/31 03:25:11;;;;;;;;;;;;;;;10.59;48.37;100237.88;5053250;28;19919;-76
2022/03/31 03:27:36;;;;;;;;;;;;;;;10.09;50.00;100234.97;5052066;28;20007;-75
2022/03/31 03:30:03;;;;;;;;;;;;;;;10.07;49.66;100236.25;5053460;28;20328;-74
2022/03/31 03:32:28;;;;;;;;;;;;;;;10.50;48.74;100226.69;5053558;28;19917;-75
2022/03/31 03:34:53;;;;;;;;;;;;;;;11.11;46.87;100223.22;5053405;28;20398;-75
2022/03/31 03:37:18;;;;;;;;;;;;;;;10.43;48.46;100226.03;5053651;28;19908;-75
2022/03/31 03:39:44;;;;;;;;;;;;;;;10.88;47.60;100226.06;5051782;28;19920;-74
2022/03/31 03:42:10;;;;;;;;;;;;;;;10.45;48.62;100218.56;5085413;28;19988;-74
2022/03/31 03:44:35;;;;;;;;;;;;;;;11.12;46.38;100219.50;5053331;28;20119;-75
2022/03/31 03:47:01;;;;;;;;;;;;;;;10.25;48.73;100223.53;5052818;28;19978;-75
2022/03/31 03:49:26;;;;;;;;;;;;;;;10.96;46.68;100220.28;5053770;28;19913;-75
2022/03/31 03:51:52;;;;;;;;;;;;;;;11.09;46.79;100211.06;5053265;28;20071;-74
2022/03/31 03:54:18;;;;;;;;;;;;;;;11.40;46.38;100214.00;5053547;28;20372;-74
2022/03/31 03:56:43;;;;;;;;;;;;;;;10.98;46.49;100206.59;5052811;28;19959;-74
2022/03/31 03:59:08;;;;;;;;;;;;;;;9.97;49.08;100222.59;5052655;28;19916;-74
2022/03/31 04:01:33;;;;;;;;;;;;;;;10.57;48.22;100215.81;5052099;28;19916;-75
2022/03/31 04:03:59;;;;;;;;;;;;;;;10.95;47.07;100221.34;5051911;28;19980;-73
2022/03/31 04:06:24;;;;;;;;;;;;;;;10.54;47.86;100216.28;5032751;28;20381;-73
2022/03/31 04:08:49;;;;;;;;;;;;;;;10.64;47.14;100211.09;5032805;28;19952;-73
2022/03/31 04:11:14;;;;;;;;;;;;;;;11.22;46.00;100225.00;5032510;28;19948;-74
2022/03/31 04:13:40;;;;;;;;;;;;;;;10.09;49.09;100224.22;5032802;28;20012;-74
2022/03/31 04:16:05;;;;;;;;;;;;;;;9.70;49.88;100219.63;5032279;28;19925;-74
2022/03/31 04:18:30;;;;;;;;;;;;;;;11.16;46.59;100215.22;5032342;28;19916;-75
2022/03/31 04:20:55;;;;;;;;;;;;;;;10.27;48.65;100216.03;5042169;28;19917;-73
2022/03/31 04:23:21;;;;;;;;;;;;;;;10.61;47.65;100209.69;5052800;28;20028;-73
2022/03/31 04:25:47;;;;;;;;;;;;;;;11.48;45.69;100210.09;5052766;28;19912;-73
2022/03/31 04:28:13;;;;;;;;;;;;;;;10.35;48.89;100209.47;5053178;28;20452;-76
2022/03/31 04:30:38;;;;;;;;;;;;;;;10.77;47.42;100200.03;5052249;28;19964;-74
2022/03/31 04:33:03;;;;;;;;;;;;;;;11.03;46.99;100187.84;5052613;28;19947;-73
2022/03/31 04:35:29;;;;;;;;;;;;;;;10.82;47.59;100184.03;5052484;28;19917;-73
2022/03/31 04:37:54;;;;;;;;;;;;;;;10.42;49.12;100183.28;5051610;28;19909;-74
2022/03/31 04:40:20;;;;;;;;;;;;;;;11.33;46.66;100180.28;5053240;28;19919;-74
2022/03/31 04:42:46;;;;;;;;;;;;;;;11.17;46.78;100181.91;5051907;28;19921;-75
2022/03/31 04:45:11;;;;;;;;;;;;;;;9.48;51.49;100199.78;5052844;28;20051;-76
2022/03/31 04:47:37;;;;;;;;;;;;;;;9.04;53.74;100201.16;5050871;28;19916;-75
2022/03/31 04:50:02;;;;;;;;;;;;;;;10.20;50.07;100195.75;5052359;28;20400;-76
2022/03/31 04:52:27;;;;;;;;;;;;;;;11.03;47.91;100202.13;5052747;28;20260;-76
2022/03/31 04:54:53;;;;;;;;;;;;;;;10.01;50.53;100211.16;5052126;28;19944;-76
2022/03/31 04:57:18;;;;;;;;;;;;;;;10.97;48.05;100203.09;5052204;28;19916;-75
2022/03/31 04:59:44;;;;;;;;;;;;;;;8.81;53.22;100214.50;5052009;28;19916;-74
2022/03/31 05:02:10;;;;;;;;;;;;;;;9.80;51.80;100206.44;5051632;28;20198;-76
2022/03/31 05:04:35;;;;;;;;;;;;;;;10.16;50.23;100216.06;5052406;28;19955;-74
2022/03/31 05:07:00;;;;;;;;;;;;;;;11.30;46.98;100207.69;5051802;28;19970;-76
2022/03/31 05:09:25;;;;;;;;;;;;;;;10.69;48.01;100210.38;5051884;28;19931;-75
2022/03/31 05:11:51;;;;;;;;;;;;;;;11.01;47.35;100204.22;5052394;28;19917;-75
2022/03/31 05:14:16;;;;;;;;;;;;;;;10.00;49.97;100208.72;5052095;28;19932;-75
2022/03/31 05:16:41;;;;;;;;;;;;;;;10.17;50.01;100199.72;5050038;28;19913;-74
2022/03/31 05:19:06;;;;;;;;;;;;;;;11.11;47.24;100192.81;5050071;28;19967;-76
2022/03/31 05:21:32;;;;;;;;;;;;;;;9.65;51.23;100196.16;5051469;28;20368;-75
2022/03/31 05:23:57;;;;;;;;;;;;;;;9.68;52.01;100192.22;5052359;28;19924;-75
2022/03/31 05:26:22;;;;;;;;;;;;;;;10.10;50.83;100193.66;5051405;28;19923;-75
2022/03/31 05:28:47;;;;;;;;;;;;;;;10.74;48.76;100181.72;5051821;28;20372;-74
2022/03/31 05:31:14;;;;;;;;;;;;;;;10.60;49.13;100180.41;5052229;28;19917;-75
2022/03/31 05:33:39;;;;;;;;;;;;;;;10.89;48.09;100181.19;5051415;28;19917;-75
2022/03/31 05:36:04;;;;;;;;;;;;;;;10.45;50.08;100180.13;5051441;28;19935;-75
2022/03/31 05:38:30;;;;;;;;;;;;;;;10.28;50.40;100173.91;5051116;28;19962;-74
2022/03/31 05:40:55;;;;;;;;;;;;;;;10.84;48.74;100168.47;5052183;28;19917;-79
2022/03/31 05:43:21;;;;;;;;;;;;;;;10.04;50.23;100183.88;5051709;28;19958;-78
2022/03/31 05:45:46;;;;;;;;;;;;;;;10.91;48.81;100184.44;5051778;28;19966;-79
2022/03/31 05:48:12;;;;;;;;;;;;;;;11.26;46.95;100172.38;5052278;28;19917;-78
2022/03/31 05:50:37;;;;;;;;;;;;;;;10.03;49.95;100178.72;5055471;28;20454;-77
2022/03/31 05:53:02;;;;;;;;;;;;;;;10.61;49.07;100168.59;5053746;28;19923;-78
2022/03/31 05:55:28;;;;;;;;;;;;;;;10.60;49.07;100166.97;5056103;28;19911;-77
2022/03/31 05:57:53;;;;;;;;;;;;;;;11.33;47.83;100172.22;5055462;28;20007;-77
2022/03/31 06:00:20;;;;;;;;;;;;;;;10.97;47.87;100168.16;5055698;28;19928;-78
2022/03/31 06:02:49;;;;;;;;;;;;;;;9.92;51.25;100175.03;5054909;28;20327;-75
2022/03/31 06:05:15;;;;;;;;;;;;;;;10.54;49.94;100163.38;5054903;28;19924;-78
2022/03/31 06:07:40;;;;;;;;;;;;;;;10.31;50.33;100162.66;5053871;28;20360;-76
2022/03/31 06:10:06;;;;;;;;;;;;;;;10.01;51.20;100162.03;5054475;28;19924;-75
2022/03/31 06:12:32;;;;;;;;;;;;;;;11.55;47.23;100173.09;5054627;28;20011;-75
2022/03/31 06:14:57;;;;;;;;;;;;;;;11.46;47.23;100169.16;5054449;28;20036;-77
2022/03/31 06:17:23;;;;;;;;;;;;;;;10.21;49.84;100175.91;5053377;28;19924;-76
2022/03/31 06:19:48;;;;;;;;;;;;;;;10.87;48.44;100167.97;5054599;28;20295;-78
2022/03/31 06:22:14;;;;;;;;;;;;;;;11.01;48.67;100155.84;5056657;28;20011;-77
2022/03/31 06:24:39;;;;;;;;;;;;;;;9.79;51.66;100161.84;5056193;28;19943;-77
2022/03/31 06:27:06;;;;;;;;;;;;;;;9.75;52.61;100166.06;5054907;28;19948;-79
2022/03/31 06:29:31;;;;;;;;;;;;;;;11.25;48.83;100161.88;5054961;28;20378;-78
2022/03/31 06:31:57;;;;;;;;;;;;;;;11.90;46.61;100162.81;5054635;28;19915;-78
2022/03/31 06:34:22;;;;;;;;;;;;;;;11.03;48.51;100158.28;5054987;28;19978;-78
2022/03/31 06:36:47;;;;;;;;;;;;;;;11.14;48.43;100163.59;5055372;28;19928;-78
2022/03/31 06:39:13;;;;;;;;;;;;;;;10.96;48.45;100161.16;5053206;28;19917;-78
2022/03/31 06:41:39;;;;;;;;;;;;;;;11.03;49.55;100169.84;5055070;28;19916;-75
2022/03/31 06:44:07;;;;;;;;;;;;;;;10.26;50.55;100168.75;5054547;28;19912;-78
2022/03/31 06:46:33;;;;;;;;;;;;;;;9.89;52.31;100180.03;5054575;28;19917;-77
2022/03/31 06:48:58;;;;;;;;;;;;;;;11.16;49.01;100168.72;5052999;28;19962;-77
2022/03/31 06:51:23;;;;;;;;;;;;;;;11.70;47.47;100178.69;5052721;28;20027;-77
2022/03/31 06:53:48;;;;;;;;;;;;;;;11.14;48.97;100178.91;5051779;28;19916;-76
2022/03/31 06:56:14;;;;;;;;;;;;;;;10.89;49.40;100179.28;5053586;28;20299;-76
2022/03/31 06:58:39;;;;;;;;;;;;;;;11.24;48.34;100182.56;5054131;28;19916;-77
2022/03/31 07:01:05;;;;;;;;;;;;;;;10.37;51.53;100180.50;5052633;28;19920;-78
2022/03/31 07:03:30;;;;;;;;;;;;;;;10.49;51.32;100179.41;5053354;28;20372;-77
2022/03/31 07:05:55;;;;;;;;;;;;;;;11.24;49.25;100179.06;5052377;28;19924;-77
2022/03/31 07:08:21;;;;;;;;;;;;;;;11.95;47.37;100172.84;5053910;28;19928;-77
2022/03/31 07:10:46;;;;;;;;;;;;;;;11.66;47.70;100168.66;5049907;28;20087;-76
2022/03/31 07:13:11;;;;;;;;;;;;;;;11.81;47.43;100177.75;5051667;28;19948;-77
2022/03/31 07:15:37;;;;;;;;;;;;;;;11.35;48.42;100180.84;5053402;28;19913;-78
2022/03/31 07:18:03;;;;;;;;;;;;;;;11.37;48.33;100181.41;5053594;28;19923;-77
2022/03/31 07:20:32;;;;;;;;;;;;;;;11.57;48.02;100183.59;5053337;28;20295;-76
2022/03/31 07:22:58;;;;;;;;;;;;;;;12.14;46.63;100183.06;5052322;28;20013;-79
2022/03/31 07:25:23;;;;;;;;;;;;;;;12.01;47.26;100180.72;5053101;28;19999;-77
2022/03/31 07:27:49;;;;;;;;;;;;;;;12.59;45.98;100181.91;5052779;28;19919;-77
2022/03/31 07:30:16;;;;;;;;;;;;;;;12.23;46.76;100188.78;5052916;28;19964;-77
2022/03/31 07:32:54;;;;;;;;;;;;;;;12.88;45.03;100186.78;5053052;28;19913;-77
2022/03/31 07:35:21;;;;;;;;;;;;;;;12.43;45.53;100182.81;5050647;28;19970;-77
2022/03/31 07:37:47;;;;;;;;;;;;;;;12.13;46.92;100185.97;5053056;28;20356;-76
2022/03/31 07:40:13;;;;;;;;;;;;;;;12.90;45.35;100183.84;5053387;28;19963;-77
2022/03/31 07:42:38;;;;;;;;;;;;;;;12.33;46.21;100176.25;5052516;28;19923;-77
2022/03/31 07:45:04;;;;;;;;;;;;;;;11.93;46.88;100181.16;5052390;28;19916;-76
2022/03/31 07:47:29;;;;;;;;;;;;;;;12.84;45.56;100179.47;5052135;28;20037;-76
2022/03/31 07:49:54;;;;;;;;;;;;;;;12.75;45.88;100173.75;5052423;28;20407;-77
2022/03/31 07:52:21;;;;;;;;;;;;;;;12.96;44.99;100174.72;5051902;28;20410;-76
2022/03/31 07:54:47;;;;;;;;;;;;;;;12.30;46.72;100175.97;5052683;28;19917;-75
2022/03/31 07:57:12;;;;;;;;;;;;;;;12.27;47.14;100169.19;5052794;28;19924;-77
2022/03/31 07:59:37;;;;;;;;;;;;;;;11.68;48.38;100166.53;5052507;28;19982;-77
2022/03/31 08:02:03;;;;;;;;;;;;;;;11.37;49.40;100163.41;5052184;28;19924;-75
2022/03/31 08:04:28;;;;;;;;;;;;;;;11.85;47.72;100161.94;5052183;28;19912;-75
2022/03/31 08:06:54;;;;;;;;;;;;;;;12.69;46.31;100163.16;5052129;28;19932;-77
2022/03/31 08:09:21;;;;;;;;;;;;;;;12.53;46.00;100162.19;5052017;28;19923;-77
2022/03/31 08:11:47;;;;;;;;;;;;;;;12.66;46.21;100160.97;5052117;28;20007;-74
2022/03/31 08:14:16;;;;;;;;;;;;;;;12.62;46.14;100162.56;5048047;28;20341;-76
2022/03/31 08:16:46;;;;;;;;;;;;;;;12.10;47.09;100164.94;5051307;28;20444;-75
2022/03/31 08:19:12;;;;;;;;;;;;;;;12.15;47.35;100159.59;5052520;28;19950;-76
2022/03/31 08:21:37;;;;;;;;;;;;;;;11.76;48.31;100160.72;5052084;28;20368;-75
2022/03/31 08:24:02;;;;;;;;;;;;;;;12.32;46.43;100153.06;5052293;28;19912;-76
2022/03/31 08:26:27;;;;;;;;;;;;;;;12.35;47.19;100162.53;5052397;28;19947;-76
2022/03/31 08:28:53;;;;;;;;;;;;;;;12.09;47.87;100157.91;5052433;28;19912;-74
2022/03/31 08:31:18;;;;;;;;;;;;;;;12.62;46.80;100157.97;5052350;28;19943;-77
2022/03/31 08:33:43;;;;;;;;;;;;;;;12.83;46.41;100159.78;5051865;28;19912;-75
2022/03/31 08:36:09;;;;;;;;;;;;;;;12.89;46.42;100153.34;5050625;28;19916;-74
2022/03/31 08:38:35;;;;;;;;;;;;;;;13.29;45.38;100152.09;5051990;28;19913;-75
2022/03/31 08:41:02;;;;;;;;;;;;;;;13.58;44.64;100147.94;5052230;28;21042;-75
2022/03/31 08:43:29;;;;;;;;;;;;;;;12.45;46.88;100148.34;5052960;28;20319;-76
2022/03/31 08:45:55;;;;;;;;;;;;;;;11.75;48.31;100148.34;5051888;28;19924;-76
2022/03/31 08:48:21;;;;;;;;;;;;;;;12.95;45.41;100149.63;5052026;28;19913;-75
2022/03/31 08:50:46;;;;;;;;;;;;;;;13.15;45.23;100160.63;5051735;28;19925;-76
2022/03/31 08:53:12;;;;;;;;;;;;;;;13.25;44.97;100146.38;5052179;28;19982;-77
2022/03/31 08:55:37;;;;;;;;;;;;;;;13.19;45.42;100150.94;5051985;28;19962;-76
2022/03/31 08:58:02;;;;;;;;;;;;;;;12.65;45.57;100151.25;5051885;28;19917;-74
2022/03/31 09:00:28;;;;;;;;;;;;;;;12.56;46.80;100140.09;5051428;28;19972;-75
2022/03/31 09:02:59;;;;;;;;;;;;;;;12.93;45.58;100145.59;5051310;28;19966;-75
2022/03/31 09:05:25;;;;;;;;;;;;;;;12.87;46.02;100154.69;5051751;28;19918;-75
2022/03/31 09:08:00;;;;;;;;;;;;;;;12.89;46.25;100157.94;5051622;28;20303;-74
2022/03/31 09:10:26;;;;;;;;;;;;;;;13.01;46.52;100169.38;5052354;28;20407;-77
2022/03/31 09:12:51;;;;;;;;;;;;;;;12.47;46.87;100175.84;5051491;28;19916;-76
2022/03/31 09:15:16;;;;;;;;;;;;;;;12.09;47.85;100166.00;5051336;28;19917;-74
2022/03/31 09:17:41;;;;;;;;;;;;;;;12.71;46.49;100164.53;5051473;28;19916;-75
2022/03/31 09:20:07;;;;;;;;;;;;;;;12.78;46.37;100161.59;5049839;28;19992;-75
2022/03/31 09:22:43;;;;;;;;;;;;;;;12.23;47.33;100162.69;5049440;28;19913;-76
2022/03/31 09:25:09;;;;;;;;;;;;;;;12.16;47.85;100163.94;5051399;28;20003;-75
2022/03/31 09:27:34;;;;;;;;;;;;;;;13.06;45.77;100159.47;5051835;28;20404;-75
2022/03/31 09:30:06;;;;;;;;;;;;;;;12.58;46.35;100161.44;5051425;28;20356;-77
2022/03/31 09:32:32;;;;;;;;;;;;;;;12.21;47.33;100161.28;5051483;28;19959;-77
2022/03/31 09:35:04;;;;;;;;;;;;;;;11.70;48.05;100150.97;5051389;28;19912;-77
2022/03/31 09:37:32;;;;;;;;;;;;;;;12.03;48.10;100158.91;5052190;28;19959;-78
2022/03/31 09:39:57;;;;;;;;;;;;;;;12.75;46.05;100162.94;5051590;28;19917;-77
2022/03/31 09:42:23;;;;;;;;;;;;;;;12.77;45.94;100165.38;5050445;28;19920;-76
2022/03/31 09:45:03;;;;;;;;;;;;;;;13.15;45.68;100163.31;5052247;28;19966;-76
2022/03/31 09:47:29;;;;;;;;;;;;;;;13.14;45.50;100159.00;5032992;28;20308;-75
2022/03/31 09:49:54;;;;;;;;;;;;;;;13.09;45.21;100158.94;5031662;28;19917;-75
2022/03/31 09:52:20;;;;;;;;;;;;;;;13.43;44.70;100153.25;5032189;28;19909;-76
2022/03/31 09:54:47;;;;;;;;;;;;;;;13.19;45.33;100161.72;5031337;28;19959;-76
2022/03/31 09:57:13;;;;;;;;;;;;;;;13.04;46.03;100152.69;5045061;28;19921;-76
2022/03/31 09:59:39;;;;;;;;;;;;;;;14.04;44.00;100149.78;5051555;28;19924;-75
2022/03/31 10:02:05;;;;;;;;;;;;;;;12.93;45.29;100165.25;5051635;28;19928;-76
2022/03/31 10:04:32;;;;;;;;;;;;;;;12.91;45.95;100159.28;5051826;28;19909;-76
2022/03/31 10:06:58;;;;;;;;;;;;;;;13.23;45.16;100155.81;5048831;28;19943;-75
2022/03/31 10:09:24;;;;;;;;;;;;;;;12.21;47.62;100159.41;5049901;28;20336;-76
2022/03/31 10:11:55;;;;;;;;;;;;;;;11.95;47.60;100162.06;5050894;28;19970;-76
2022/03/31 10:14:36;;;;;;;;;;;;;;;12.90;46.00;100160.38;5051000;28;20441;-75
2022/03/31 10:17:06;;;;;;;;;;;;;;;11.93;48.35;100161.50;5051064;28;20307;-76
2022/03/31 10:19:35;;;;;;;;;;;;;;;12.25;47.76;100165.94;5051729;28;19963;-76
2022/03/31 10:24:41;;;;;;;;;;;;;;;12.69;46.14;100160.47;5051041;28;19913;-74
2022/03/31 10:24:57;;;;;;;;;;;;;;;13.45;44.62;100159.19;5051410;28;20501;-74
2022/03/31 10:27:40;;;;;;;;;;;;;;;12.91;45.33;100166.59;5051358;28;19956;-75
2022/03/31 10:30:11;;;;;;;;;;;;;;;12.14;47.61;100166.06;5051297;28;19959;-75
2022/03/31 10:32:37;;;;;;;;;;;;;;;12.47;46.74;100157.81;5051095;28;19923;-76
2022/03/31 10:35:03;;;;;;;;;;;;;;;11.36;49.75;100161.75;5051872;28;19916;-75
2022/03/31 10:37:38;;;;;;;;;;;;;;;11.42;50.04;100168.03;5055395;28;20302;-75
2022/03/31 10:40:07;;;;;;;;;;;;;;;10.81;50.56;100162.78;5052922;28;19917;-75
2022/03/31 10:42:33;;;;;;;;;;;;;;;11.80;48.14;100169.94;5053455;28;19916;-75
2022/03/31 10:45:09;;;;;;;;;;;;;;;12.08;47.10;100161.69;5054129;28;20319;-74
2022/03/31 10:47:35;;;;;;;;;;;;;;;12.22;47.46;100161.06;5054085;28;19913;-75
2022/03/31 10:50:01;;;;;;;;;;;;;;;11.30;49.71;100165.44;5052742;28;19936;-74
2022/03/31 10:52:28;;;;;;;;;;;;;;;12.64;46.43;100155.03;5055588;28;19912;-76
2022/03/31 10:55:03;;;;;;;;;;;;;;;12.42;47.15;100152.38;5053730;28;20070;-76
2022/03/31 10:57:36;;;;;;;;;;;;;;;12.32;46.89;100154.97;5053898;28;19923;-75
2022/03/31 11:00:02;;;;;;;;;;;;;;;11.12;49.27;100160.34;5052387;28;20460;-75
2022/03/31 11:02:29;;;;;;;;;;;;;;;11.49;48.53;100163.31;5054301;28;19983;-75
2022/03/31 11:04:58;;;;;;;;;;;;;;;11.61;48.19;100166.72;5045103;28;19913;-77
2022/03/31 11:07:24;;;;;;;;;;;;;;;11.45;48.66;100167.56;5037984;28;19920;-76
2022/03/31 11:10:00;;;;;;;;;;;;;;;10.99;49.88;100165.19;5054345;28;19990;-74
2022/03/31 11:12:28;;;;;;;;;;;;;;;11.38;47.80;100161.50;5054197;28;19974;-75
2022/03/31 11:14:55;;;;;;;;;;;;;;;11.80;47.62;100161.88;5054804;28;20280;-76
2022/03/31 11:17:22;;;;;;;;;;;;;;;11.30;48.32;100162.75;5054544;28;19923;-76
2022/03/31 11:19:47;;;;;;;;;;;;;;;11.27;47.76;100154.38;5052737;28;19912;-76
2022/03/31 11:22:17;;;;;;;;;;;;;;;11.75;47.10;100151.88;5054943;28;19991;-74
2022/03/31 11:24:43;;;;;;;;;;;;;;;11.82;46.60;100154.34;5054201;28;19917;-75
2022/03/31 11:27:08;;;;;;;;;;;;;;;11.56;46.93;100149.69;5053850;28;19987;-75
2022/03/31 11:29:33;;;;;;;;;;;;;;;11.32;47.56;100152.56;5048129;28;19917;-76
2022/03/31 11:31:59;;;;;;;;;;;;;;;10.83;48.75;100149.91;5033947;28;20395;-75
2022/03/31 11:34:25;;;;;;;;;;;;;;;11.59;46.51;100146.47;5035054;28;19935;-76
2022/03/31 11:36:52;;;;;;;;;;;;;;;11.45;46.72;100146.03;5034835;28;19921;-79
2022/03/31 11:39:21;;;;;;;;;;;;;;;11.69;46.53;100150.16;5034772;28;19929;-79
2022/03/31 11:41:46;;;;;;;;;;;;;;;11.09;47.86;100142.00;5067543;28;20013;-79
2022/03/31 11:44:12;;;;;;;;;;;;;;;11.58;46.65;100142.97;5035686;28;19955;-80
2022/03/31 11:46:39;;;;;;;;;;;;;;;11.42;46.51;100147.31;5045832;28;19919;-80
2022/03/31 11:49:12;;;;;;;;;;;;;;;11.79;45.39;100138.72;5054931;28;19936;-79
2022/03/31 11:51:38;;;;;;;;;;;;;;;11.27;46.91;100135.53;5054425;28;20487;-80
2022/03/31 11:54:07;;;;;;;;;;;;;;;10.92;47.85;100143.06;5053863;28;19959;-79
2022/03/31 11:56:33;;;;;;;;;;;;;;;11.55;45.67;100142.66;5053921;28;19955;-82
2022/03/31 11:58:58;;;;;;;;;;;;;;;11.29;46.56;100136.94;5054531;28;19970;-79
2022/03/31 12:01:43;;;;;;;;;;;;;;;11.46;46.45;100134.19;5053818;28;19971;-78
2022/03/31 12:04:18;;;;;;;;;;;;;;;11.43;46.38;100137.38;5054488;28;20005;-77
2022/03/31 12:06:43;;;;;;;;;;;;;;;10.37;49.23;100126.78;5054840;28;20391;-78
2022/03/31 12:09:10;;;;;;;;;;;;;;;11.20;47.07;100133.00;5055378;28;19917;-78
2022/03/31 12:11:35;;;;;;;;;;;;;;;11.46;46.25;100139.56;5053460;28;19921;-77
2022/03/31 12:14:02;;;;;;;;;;;;;;;11.14;47.04;100131.34;5053581;28;19974;-76
2022/03/31 12:16:27;;;;;;;;;;;;;;;11.37;46.50;100130.31;5055470;28;19912;-76
2022/03/31 12:19:11;;;;;;;;;;;;;;;11.56;45.79;100128.16;5055469;28;20261;-77
2022/03/31 12:21:44;;;;;;;;;;;;;;;10.98;47.53;100124.09;5052855;28;20442;-77
2022/03/31 12:24:10;;;;;;;;;;;;;;;10.69;47.60;100122.53;5053232;28;20004;-77
2022/03/31 12:26:35;;;;;;;;;;;;;;;10.77;48.21;100124.78;5056471;28;19945;-75
2022/03/31 12:29:01;;;;;;;;;;;;;;;10.84;47.68;100121.97;5053954;28;19931;-75
2022/03/31 12:31:31;;;;;;;;;;;;;;;10.96;47.67;100123.53;5053298;28;20005;-76
2022/03/31 12:33:58;;;;;;;;;;;;;;;10.81;47.58;100119.78;5053006;28;19917;-76
2022/03/31 12:36:27;;;;;;;;;;;;;;;10.83;47.42;100121.13;5033175;28;20459;-77